createdAt,value
2018-06-22T00:01:15.676Z,10.33
2018-06-22T00:03:44.139Z,5.53
2018-06-22T00:06:12.554Z,10.23
2018-06-22T00:08:40.916Z,6.47
2018-06-22T00:11:09.595Z,5.37
2018-06-22T00:13:38.074Z,7.20
2018-06-22T00:16:06.457Z,9.50
2018-06-22T00:18:35.037Z,5.57
2018-06-22T00:21:03.520Z,8.73
2018-06-22T00:23:32.099Z,5.60
2018-06-22T00:26:00.661Z,7.40
2018-06-22T00:28:29.266Z,5.07
2018-06-22T00:30:57.848Z,8.43
2018-06-22T00:33:26.328Z,8.17
2018-06-22T00:35:54.811Z,6.53
2018-06-22T00:38:23.192Z,6.80
2018-06-22T00:40:51.773Z,8.70
2018-06-22T00:43:20.252Z,5.47
2018-06-22T00:45:48.836Z,5.10
2018-06-22T00:48:17.315Z,5.93
2018-06-22T00:50:45.794Z,4.97
2018-06-22T00:53:19.703Z,5.27
2018-06-22T00:55:48.286Z,6.47
2018-06-22T00:58:17.014Z,5.40
2018-06-22T01:00:46.172Z,5.73
2018-06-22T01:03:14.689Z,5.97
2018-06-22T01:05:43.125Z,5.80
2018-06-22T01:08:12.022Z,5.90
2018-06-22T01:10:40.502Z,7.63
2018-06-22T01:13:09.088Z,7.30
2018-06-22T01:15:37.774Z,5.83
2018-06-22T01:18:06.255Z,5.27
2018-06-22T01:20:34.731Z,5.67
2018-06-22T01:23:03.325Z,4.20
2018-06-22T01:25:31.912Z,3.90
2018-06-22T01:28:00.582Z,8.30
2018-06-22T01:30:29.165Z,8.07
2018-06-22T01:32:57.849Z,5.63
2018-06-22T01:35:26.432Z,7.43
2018-06-22T01:37:54.913Z,4.40
2018-06-22T01:40:23.402Z,5.33
2018-06-22T01:42:51.771Z,5.20
2018-06-22T01:45:20.253Z,4.77
2018-06-22T01:47:48.938Z,4.27
2018-06-22T01:50:17.522Z,5.73
2018-06-22T01:52:46.001Z,4.80
2018-06-22T01:55:14.585Z,6.37
2018-06-22T01:57:43.166Z,5.43
2018-06-22T02:00:11.751Z,4.33
2018-06-22T02:02:40.006Z,7.20
2018-06-22T02:05:08.609Z,4.93
2018-06-22T02:07:36.973Z,6.83
2018-06-22T02:10:05.368Z,8.83
2018-06-22T02:12:34.053Z,6.37
2018-06-22T02:15:02.637Z,4.63
2018-06-22T02:17:31.116Z,5.53
2018-06-22T02:19:59.410Z,5.77
2018-06-22T02:22:28.177Z,6.50
2018-06-22T02:24:56.866Z,6.13
2018-06-22T02:27:25.449Z,6.20
2018-06-22T02:29:53.941Z,6.20
2018-06-22T02:32:22.201Z,5.57
2018-06-22T02:34:50.784Z,5.20
2018-06-22T02:37:19.073Z,6.30
2018-06-22T02:39:47.532Z,5.60
2018-06-22T02:42:16.125Z,7.53
2018-06-22T02:44:44.710Z,7.57
2018-06-22T02:47:13.197Z,5.30
2018-06-22T02:49:41.673Z,6.00
2018-06-22T02:52:10.252Z,5.77
2018-06-22T02:54:38.835Z,8.20
2018-06-22T02:57:07.241Z,6.77
2018-06-22T02:59:35.487Z,7.43
2018-06-22T03:02:03.874Z,5.63
2018-06-22T03:04:32.449Z,8.23
2018-06-22T03:07:01.032Z,5.53
2018-06-22T03:09:29.419Z,7.93
2018-06-22T03:11:57.919Z,5.53
2018-06-22T03:14:26.477Z,6.93
2018-06-22T03:16:55.059Z,6.17
2018-06-22T03:19:23.444Z,5.53
2018-06-22T03:21:52.020Z,5.37
2018-06-22T03:24:20.705Z,5.93
2018-06-22T03:26:49.098Z,5.33
2018-06-22T03:29:17.566Z,5.37
2018-06-22T03:31:46.148Z,8.93
2018-06-22T03:34:14.625Z,6.10
2018-06-22T03:36:43.209Z,7.73
2018-06-22T03:39:11.792Z,5.53
2018-06-22T03:41:40.090Z,5.80
2018-06-22T03:44:08.539Z,6.23
2018-06-22T03:46:37.441Z,6.07
2018-06-22T03:49:06.329Z,8.80
2018-06-22T03:51:34.915Z,6.77
2018-06-22T03:54:03.501Z,5.47
2018-06-22T03:56:32.077Z,6.10
2018-06-22T03:59:00.481Z,5.33
2018-06-22T04:01:29.139Z,5.83
2018-06-22T04:03:57.836Z,11.40
2018-06-22T04:06:26.222Z,14.77
2018-06-22T04:08:54.719Z,23.93
2018-06-22T04:11:23.168Z,20.53
2018-06-22T04:13:51.851Z,23.57
2018-06-22T04:16:20.320Z,18.63
2018-06-22T04:18:48.916Z,20.43
2018-06-22T04:21:17.498Z,18.57
2018-06-22T04:23:45.995Z,15.20
2018-06-22T04:26:14.380Z,12.47
2018-06-22T04:28:42.750Z,8.83
2018-06-22T04:31:11.214Z,7.17
2018-06-22T04:33:39.901Z,9.23
2018-06-22T04:36:08.381Z,7.15
2018-06-22T04:38:37.202Z,7.60
2018-06-22T04:41:06.171Z,8.37
2018-06-22T04:43:34.746Z,5.97
2018-06-22T04:46:03.224Z,7.87
2018-06-22T04:49:03.775Z,7.50
2018-06-22T04:51:53.885Z,7.27
2018-06-22T04:54:22.426Z,7.33
2018-06-22T04:56:51.010Z,9.77
2018-06-22T04:59:19.395Z,7.00
2018-06-22T05:01:47.989Z,7.23
2018-06-22T05:04:16.552Z,9.47
2018-06-22T05:06:44.972Z,6.53
2018-06-22T05:09:13.420Z,10.37
2018-06-22T05:11:41.892Z,11.80
2018-06-22T05:14:10.476Z,8.43
2018-06-22T05:16:39.057Z,10.03
2018-06-22T05:19:07.539Z,9.00
2018-06-22T05:21:36.123Z,10.27
2018-06-22T05:24:04.708Z,12.40
2018-06-22T05:26:33.227Z,12.77
2018-06-22T05:29:01.769Z,7.20
2018-06-22T05:31:30.356Z,8.83
2018-06-22T05:33:58.834Z,9.13
2018-06-22T05:36:27.208Z,9.37
2018-06-22T05:38:55.823Z,8.83
2018-06-22T05:41:24.377Z,11.17
2018-06-22T05:43:53.168Z,7.20
2018-06-22T05:46:21.654Z,8.43
2018-06-22T05:48:50.139Z,8.00
2018-06-22T05:51:18.435Z,7.70
2018-06-22T05:53:46.982Z,8.13
2018-06-22T05:56:15.462Z,6.87
2018-06-22T05:58:43.900Z,7.17
2018-06-22T06:01:12.541Z,7.93
2018-06-22T06:03:41.118Z,8.50
2018-06-22T06:06:09.591Z,9.13
2018-06-22T06:08:38.175Z,8.17
2018-06-22T06:11:07.100Z,11.67
2018-06-22T06:13:35.549Z,10.97
2018-06-22T06:16:04.130Z,11.73
2018-06-22T06:18:32.606Z,13.57
2018-06-22T06:21:01.194Z,9.73
2018-06-22T06:23:30.081Z,14.03
2018-06-22T06:25:58.462Z,8.43
2018-06-22T06:28:27.063Z,10.80
2018-06-22T06:30:55.627Z,8.00
2018-06-22T06:33:24.210Z,8.37
2018-06-22T06:35:52.790Z,8.17
2018-06-22T06:38:21.270Z,8.97
2018-06-22T06:40:49.648Z,8.47
2018-06-22T06:43:18.131Z,9.97
2018-06-22T06:45:46.611Z,27.03
2018-06-22T06:48:15.083Z,16.60
2018-06-22T06:50:43.586Z,12.03
2018-06-22T06:53:12.159Z,6.67
2018-06-22T06:55:40.841Z,12.23
2018-06-22T06:58:09.218Z,6.93
2018-06-22T07:00:37.612Z,6.63
2018-06-22T07:03:06.076Z,4.30
2018-06-22T07:05:34.660Z,8.43
2018-06-22T07:08:03.151Z,6.97
2018-06-22T07:10:31.927Z,6.27
2018-06-22T07:13:00.512Z,6.27
2018-06-22T07:15:29.003Z,9.43
2018-06-22T07:17:57.577Z,4.73
2018-06-22T07:20:26.059Z,7.67
2018-06-22T07:22:54.544Z,11.10
2018-06-22T07:25:23.121Z,5.00
2018-06-22T07:27:51.497Z,5.50
2018-06-22T07:30:19.741Z,8.40
2018-06-22T07:32:48.146Z,8.43
2018-06-22T07:35:16.631Z,7.77
2018-06-22T07:37:45.214Z,10.87
2018-06-22T07:40:13.709Z,5.17
2018-06-22T07:42:42.090Z,4.27
2018-06-22T07:45:10.654Z,4.33
2018-06-22T07:47:39.341Z,6.70
2018-06-22T07:50:07.821Z,12.27
2018-06-22T07:52:36.407Z,5.37
2018-06-22T07:55:05.036Z,5.53
2018-06-22T07:57:33.581Z,4.80
2018-06-22T08:00:02.154Z,5.67
2018-06-22T08:02:30.842Z,5.07
2018-06-22T08:04:59.322Z,5.10
2018-06-22T08:07:27.801Z,12.13
2018-06-22T08:09:56.381Z,6.43
2018-06-22T08:12:24.863Z,14.43
2018-06-22T08:14:53.446Z,4.40
2018-06-22T08:17:22.049Z,3.83
2018-06-22T08:19:50.505Z,6.53
2018-06-22T08:22:18.990Z,5.57
2018-06-22T08:24:47.574Z,8.53
2018-06-22T08:27:15.970Z,4.03
2018-06-22T08:29:44.742Z,5.23
2018-06-22T08:32:13.325Z,6.20
2018-06-22T08:34:41.908Z,6.47
2018-06-22T08:37:10.369Z,4.93
2018-06-22T08:39:38.972Z,6.17
2018-06-22T08:42:07.595Z,4.50
2018-06-22T08:44:36.044Z,7.00
2018-06-22T08:47:04.521Z,7.40
2018-06-22T08:49:33.238Z,8.17
2018-06-22T08:52:02.097Z,5.27
2018-06-22T08:54:30.672Z,6.33
2018-06-22T08:56:59.355Z,6.43
2018-06-22T08:59:27.939Z,5.00
2018-06-22T09:01:56.378Z,4.03
2018-06-22T09:04:24.699Z,3.50
2018-06-22T09:06:53.285Z,5.83
2018-06-22T09:09:21.668Z,4.27
2018-06-22T09:11:50.246Z,8.80
2018-06-22T09:14:18.728Z,4.80
2018-06-22T09:16:47.313Z,5.87
2018-06-22T09:19:15.700Z,4.23
2018-06-22T09:21:44.240Z,7.83
2018-06-22T09:24:12.665Z,4.53
2018-06-22T09:26:41.020Z,5.90
2018-06-22T09:29:09.432Z,6.10
2018-06-22T09:31:37.988Z,3.93
2018-06-22T09:34:06.569Z,6.40
2018-06-22T09:36:35.044Z,4.43
2018-06-22T09:39:04.037Z,4.10
2018-06-22T09:41:32.624Z,4.37
2018-06-22T09:44:01.203Z,3.83
2018-06-22T09:46:29.785Z,5.30
2018-06-22T09:48:58.261Z,4.97
2018-06-22T09:51:26.953Z,6.60
2018-06-22T09:53:55.638Z,3.83
2018-06-22T09:56:24.229Z,5.07
2018-06-22T09:58:52.803Z,6.03
2018-06-22T10:01:21.483Z,4.60
2018-06-22T10:03:49.855Z,10.40
2018-06-22T10:06:18.348Z,4.00
2018-06-22T10:08:46.934Z,6.10
2018-06-22T10:11:15.337Z,7.57
2018-06-22T10:13:43.891Z,6.53
2018-06-22T10:16:12.375Z,7.97
2018-06-22T10:18:40.955Z,6.27
2018-06-22T10:21:09.539Z,6.10
2018-06-22T10:23:38.022Z,6.17
2018-06-22T10:26:06.401Z,9.53
2018-06-22T10:28:34.698Z,12.47
2018-06-22T10:31:03.373Z,5.20
2018-06-22T10:33:32.046Z,5.67
2018-06-22T10:36:00.633Z,4.77
2018-06-22T10:38:29.210Z,6.07
2018-06-22T10:40:57.794Z,11.10
2018-06-22T10:43:26.272Z,11.07
2018-06-22T10:45:54.889Z,10.73
2018-06-22T10:48:23.353Z,9.77
2018-06-22T10:50:51.918Z,9.60
2018-06-22T10:53:20.399Z,7.93
2018-06-22T10:55:48.984Z,8.30
2018-06-22T10:58:17.591Z,9.33
2018-06-22T11:00:46.084Z,17.33
2018-06-22T11:03:14.832Z,11.53
2018-06-22T11:05:43.341Z,9.97
2018-06-22T11:08:11.796Z,11.87
2018-06-22T11:10:40.479Z,16.70
2018-06-22T11:13:09.067Z,11.53
2018-06-22T11:15:37.750Z,9.70
2018-06-22T11:18:06.225Z,12.27
2018-06-22T11:20:34.812Z,16.83
2018-06-22T11:23:03.232Z,12.43
2018-06-22T11:25:31.671Z,11.00
2018-06-22T11:28:00.254Z,7.30
2018-06-22T11:30:28.836Z,6.53
2018-06-22T11:32:58.911Z,10.20
2018-06-22T11:35:27.675Z,7.50
2018-06-22T11:37:56.224Z,8.27
2018-06-22T11:40:24.550Z,7.70
2018-06-22T11:42:53.084Z,7.13
2018-06-22T11:45:21.773Z,6.33
2018-06-22T11:47:50.258Z,8.63
2018-06-22T11:50:18.732Z,7.93
2018-06-22T11:52:47.321Z,6.67
2018-06-22T11:55:15.693Z,7.27
2018-06-22T11:57:44.275Z,17.03
2018-06-22T12:00:12.753Z,13.13
2018-06-22T12:02:41.441Z,15.80
2018-06-22T12:05:10.025Z,8.23
2018-06-22T12:07:38.786Z,10.20
2018-06-22T12:10:07.396Z,9.87
2018-06-22T12:12:35.980Z,8.43
2018-06-22T12:15:05.208Z,12.50
2018-06-22T12:17:33.652Z,6.37
2018-06-22T12:20:02.241Z,7.70
2018-06-22T12:22:30.821Z,7.53
2018-06-22T12:24:59.300Z,8.60
2018-06-22T12:27:27.696Z,9.97
2018-06-22T12:29:56.466Z,5.40
2018-06-22T12:32:24.953Z,8.43
2018-06-22T12:34:53.667Z,7.50
2018-06-22T12:37:22.112Z,6.33
2018-06-22T12:39:50.695Z,5.47
2018-06-22T12:42:19.175Z,9.90
2018-06-22T12:44:47.661Z,8.53
2018-06-22T12:47:16.240Z,9.00
2018-06-22T12:49:44.828Z,6.37
2018-06-22T12:52:13.405Z,8.77
2018-06-22T12:54:41.818Z,7.77
2018-06-22T12:57:10.211Z,11.93
2018-06-22T12:59:38.950Z,16.67
2018-06-22T13:02:07.531Z,15.77
2018-06-22T13:04:35.926Z,7.77
2018-06-22T13:07:04.496Z,11.60
2018-06-22T13:09:33.089Z,9.87
2018-06-22T13:12:01.714Z,6.27
2018-06-22T13:14:30.244Z,8.10
2018-06-22T13:16:58.851Z,14.00
2018-06-22T13:19:27.307Z,11.83
2018-06-22T13:21:56.095Z,7.77
2018-06-22T13:24:25.338Z,6.87
2018-06-22T13:26:53.873Z,17.20
2018-06-22T13:29:22.354Z,17.73
2018-06-22T13:31:50.731Z,8.10
2018-06-22T13:34:19.215Z,10.70
2018-06-22T13:36:48.416Z,12.93
2018-06-22T13:39:17.930Z,12.50
2018-06-22T13:41:46.746Z,8.77
2018-06-22T13:44:15.184Z,10.17
2018-06-22T13:46:44.077Z,7.83
2018-06-22T13:49:12.554Z,6.80
2018-06-22T13:51:41.035Z,6.77
2018-06-22T13:54:10.032Z,11.40
2018-06-22T13:56:38.656Z,13.70
2018-06-22T13:59:07.299Z,10.53
2018-06-22T14:01:36.086Z,12.07
2018-06-22T14:04:09.900Z,8.77
2018-06-22T14:06:43.466Z,8.30
2018-06-22T14:09:14.272Z,14.50
2018-06-22T14:11:43.113Z,11.73
2018-06-22T14:14:11.592Z,11.07
2018-06-22T14:16:40.486Z,11.67
2018-06-22T14:19:09.275Z,15.80
2018-06-22T14:21:37.649Z,8.47
2018-06-22T14:24:06.758Z,11.23
2018-06-22T14:26:35.232Z,11.23
2018-06-22T14:29:03.605Z,11.57
2018-06-22T14:31:31.988Z,8.47
2018-06-22T14:34:00.368Z,9.60
2018-06-22T14:36:28.941Z,10.57
2018-06-22T14:38:57.736Z,9.73
2018-06-22T14:41:26.264Z,12.57
2018-06-22T14:43:54.692Z,9.90
2018-06-22T14:46:23.279Z,13.90
2018-06-22T14:48:51.776Z,11.33
2018-06-22T14:51:21.261Z,12.00
2018-06-22T14:53:55.172Z,9.97
2018-06-22T14:56:28.790Z,11.13
2018-06-22T14:59:02.573Z,8.70
2018-06-22T15:01:36.379Z,10.83
2018-06-22T15:04:10.290Z,12.43
2018-06-22T15:06:44.297Z,10.43
2018-06-22T15:09:12.618Z,16.37
2018-06-22T15:11:41.155Z,14.80
2018-06-22T15:14:09.739Z,13.27
2018-06-22T15:16:38.320Z,11.73
2018-06-22T15:19:06.902Z,13.03
2018-06-22T15:21:35.386Z,14.67
2018-06-22T15:24:03.860Z,14.47
2018-06-22T15:26:32.449Z,15.53
2018-06-22T15:29:01.034Z,18.87
2018-06-22T15:31:29.617Z,17.87
2018-06-22T15:34:03.301Z,18.83
2018-06-22T15:36:37.022Z,14.30
2018-06-22T15:39:12.668Z,20.70
2018-06-22T15:41:46.438Z,6.00
2018-06-22T15:44:20.296Z,7.53
2018-06-22T15:46:53.826Z,7.00
2018-06-22T15:49:27.582Z,6.50
2018-06-22T15:52:01.391Z,5.23
2018-06-22T15:54:35.300Z,6.47
2018-06-22T15:57:03.779Z,5.37
2018-06-22T15:59:32.258Z,6.30
2018-06-22T16:02:05.940Z,4.27
2018-06-22T16:04:34.545Z,3.43
2018-06-22T16:07:03.127Z,9.40
2018-06-22T16:09:31.812Z,4.83
2018-06-22T16:12:05.618Z,6.83
2018-06-22T16:14:39.526Z,7.70
2018-06-22T16:17:13.301Z,8.20
2018-06-22T16:19:47.135Z,5.17
2018-06-22T16:23:19.929Z,9.30
2018-06-22T16:25:53.938Z,4.87
2018-06-22T16:28:22.419Z,6.63
2018-06-22T16:30:50.901Z,7.17
2018-06-22T16:33:19.376Z,7.20
2018-06-22T16:35:47.960Z,7.87
2018-06-22T16:38:16.550Z,5.10
2018-06-22T16:40:45.126Z,5.73
2018-06-22T16:43:13.710Z,4.73
2018-06-22T16:45:42.312Z,4.30
2018-06-22T16:48:10.881Z,5.30
2018-06-22T16:50:39.356Z,6.07
2018-06-22T16:53:07.734Z,6.40
2018-06-22T16:55:36.052Z,5.57
2018-06-22T16:58:10.238Z,6.43
2018-06-22T17:00:44.561Z,6.20
2018-06-22T17:03:13.918Z,8.10
2018-06-22T17:05:42.430Z,5.90
2018-06-22T17:08:16.904Z,6.80
2018-06-22T17:10:50.864Z,6.23
2018-06-22T17:13:24.658Z,6.60
2018-06-22T17:16:03.565Z,5.93
2018-06-22T17:18:37.391Z,4.97
2018-06-22T17:21:05.972Z,6.43
2018-06-22T17:23:34.784Z,5.93
2018-06-22T17:26:03.343Z,5.47
2018-06-22T17:28:31.817Z,6.77
2018-06-22T17:31:00.415Z,5.40
2018-06-22T17:33:29.297Z,4.73
2018-06-22T17:36:00.235Z,4.60
2018-06-22T17:38:29.021Z,5.03
2018-06-22T17:40:59.218Z,7.10
2018-06-22T17:43:27.834Z,4.57
2018-06-22T17:45:56.406Z,4.80
2018-06-22T17:48:24.890Z,5.67
2018-06-22T17:50:53.379Z,8.17
2018-06-22T17:53:22.195Z,5.17
2018-06-22T17:55:50.851Z,7.17
2018-06-22T17:58:19.327Z,6.93
2018-06-22T18:00:52.936Z,8.70
2018-06-22T18:03:26.833Z,7.37
2018-06-22T18:06:00.580Z,8.23
2018-06-22T18:08:34.445Z,7.87
2018-06-22T18:11:08.194Z,6.27
2018-06-22T18:13:36.733Z,6.50
2018-06-22T18:16:05.352Z,9.20
2018-06-22T18:18:33.896Z,7.25
2018-06-22T18:21:02.480Z,7.23
2018-06-22T18:23:30.999Z,7.35
2018-06-22T18:25:59.332Z,6.00
2018-06-22T18:28:27.742Z,7.33
2018-06-22T18:30:56.308Z,11.27
2018-06-22T18:33:24.675Z,12.27
2018-06-22T18:35:53.083Z,9.30
2018-06-22T18:38:21.538Z,10.37
2018-06-22T18:40:50.015Z,11.77
2018-06-22T18:43:23.923Z,31.50
2018-06-22T18:45:52.507Z,14.67
2018-06-22T18:48:20.888Z,13.63
2018-06-22T18:50:49.572Z,7.90
2018-06-22T18:53:23.329Z,11.00
2018-06-22T18:55:57.180Z,8.80
2018-06-22T18:58:31.191Z,8.30
2018-06-22T19:01:04.708Z,8.97
2018-06-22T19:03:38.598Z,9.77
2018-06-22T19:06:06.987Z,8.97
2018-06-22T19:08:35.206Z,8.50
2018-06-22T19:11:03.639Z,14.37
2018-06-22T19:13:32.320Z,7.53
2018-06-22T19:16:00.901Z,8.30
2018-06-22T19:18:29.694Z,8.80
2018-06-22T19:20:58.274Z,11.63
2018-06-22T19:23:26.639Z,9.43
2018-06-22T19:25:55.121Z,10.80
2018-06-22T19:28:23.608Z,11.30
2018-06-22T19:30:52.190Z,12.27
2018-06-22T19:33:20.878Z,15.90
2018-06-22T19:35:49.663Z,13.63
2018-06-22T19:38:18.040Z,15.77
2018-06-22T19:40:46.523Z,16.10
2018-06-22T19:43:20.741Z,14.80
2018-06-22T19:45:54.645Z,20.83
2018-06-22T19:48:30.342Z,18.40
2018-06-22T19:51:04.100Z,13.97
2018-06-22T19:53:37.890Z,12.53
2018-06-22T19:56:10.259Z,13.27
2018-06-22T19:58:38.862Z,14.07
2018-06-22T20:01:07.448Z,12.93
2018-06-22T20:03:35.991Z,15.23
2018-06-22T20:06:04.709Z,11.33
2018-06-22T20:08:33.195Z,10.10
2018-06-22T20:11:01.774Z,9.83
2018-06-22T20:13:30.357Z,12.03
2018-06-22T20:15:58.939Z,11.67
2018-06-22T20:18:27.523Z,10.80
2018-06-22T20:20:56.106Z,8.60
2018-06-22T20:23:24.694Z,9.70
2018-06-22T20:25:53.173Z,9.93
2018-06-22T20:28:21.581Z,10.90
2018-06-22T20:30:50.136Z,9.53
2018-06-22T20:33:21.078Z,8.73
2018-06-22T20:35:55.081Z,10.97
2018-06-22T20:38:28.988Z,10.67
2018-06-22T20:41:02.572Z,10.20
2018-06-22T20:43:36.351Z,11.93
2018-06-22T20:46:04.976Z,11.47
2018-06-22T20:48:38.888Z,9.37
2018-06-22T20:51:07.469Z,11.87
2018-06-22T20:53:35.902Z,11.57
2018-06-22T20:56:04.429Z,11.37
2018-06-22T20:58:32.908Z,10.83
2018-06-22T21:01:01.496Z,14.53
2018-06-22T21:03:29.901Z,9.60
2018-06-22T21:05:58.323Z,11.57
2018-06-22T21:08:26.727Z,12.17
2018-06-22T21:10:55.207Z,16.37
2018-06-22T21:13:23.822Z,12.73
2018-06-22T21:15:52.375Z,13.03
2018-06-22T21:18:20.883Z,10.73
2018-06-22T21:21:53.544Z,9.83
2018-06-22T21:24:21.714Z,7.70
2018-06-22T21:26:50.298Z,9.13
2018-06-22T21:29:24.105Z,11.77
2018-06-22T21:31:58.317Z,15.93
2018-06-22T21:34:33.965Z,17.77
2018-06-22T21:37:07.788Z,19.13
2018-06-22T21:39:36.354Z,23.83
2018-06-22T21:42:04.945Z,19.93
2018-06-22T21:44:33.519Z,15.47
2018-06-22T21:47:02.222Z,16.27
2018-06-22T21:49:30.787Z,12.63
2018-06-22T21:51:59.268Z,12.93
2018-06-22T21:54:27.851Z,10.07
2018-06-22T21:56:56.336Z,10.73
2018-06-22T21:59:24.818Z,14.83
2018-06-22T22:01:53.397Z,15.50
2018-06-22T22:04:21.786Z,16.30
2018-06-22T22:06:50.461Z,18.37
2018-06-22T22:09:19.075Z,19.60
2018-06-22T22:11:54.179Z,26.07
2018-06-22T22:14:23.706Z,19.80
2018-06-22T22:16:52.269Z,22.80
2018-06-22T22:19:20.849Z,19.00
2018-06-22T22:21:49.433Z,16.80
2018-06-22T22:24:18.431Z,15.47
2018-06-22T22:26:46.917Z,14.90
2018-06-22T22:29:15.316Z,16.33
2018-06-22T22:31:43.871Z,20.67
2018-06-22T22:34:12.450Z,20.10
2018-06-22T22:36:40.937Z,20.57
2018-06-22T22:39:09.343Z,21.83
2018-06-22T22:41:38.113Z,19.17
2018-06-22T22:44:06.689Z,21.83
2018-06-22T22:46:35.266Z,20.83
2018-06-22T22:49:03.760Z,21.57
2018-06-22T22:51:32.225Z,17.53
2018-06-22T22:54:00.909Z,20.93
2018-06-22T22:56:29.492Z,16.37
2018-06-22T22:58:58.529Z,13.63
2018-06-22T23:01:26.969Z,16.00
2018-06-22T23:03:55.503Z,14.00
2018-06-22T23:06:23.936Z,11.97
2018-06-22T23:08:52.512Z,12.57
2018-06-22T23:11:21.091Z,16.47
2018-06-22T23:13:49.561Z,12.80
2018-06-22T23:16:18.154Z,12.20
2018-06-22T23:18:46.840Z,12.47
2018-06-22T23:21:15.220Z,10.93
2018-06-22T23:23:43.700Z,13.77
2018-06-22T23:26:12.285Z,13.83
2018-06-22T23:28:40.865Z,9.07
2018-06-22T23:31:09.242Z,5.37
2018-06-22T23:33:37.726Z,4.43
2018-06-22T23:36:06.308Z,6.43
2018-06-22T23:38:35.809Z,6.47
2018-06-22T23:41:04.401Z,7.07
2018-06-22T23:43:33.057Z,7.57
2018-06-22T23:46:01.972Z,7.33
2018-06-22T23:48:30.554Z,5.53
2018-06-22T23:50:59.341Z,7.90
2018-06-22T23:53:27.927Z,5.57
2018-06-22T23:55:56.394Z,6.70
2018-06-22T23:58:24.685Z,7.80
